Thursday, November 23, 2017, 2:19 AM EST
Back to Local

KUNV, State College, University Park Airport

Location: State College, PA, United States Lat: 40.85
Local Time: 2:19 AM EST ( 7:19 GMT) Lon: -77.85
Time Zone: US/Eastern Elev: 1240 ft

Show me the last for .
Show Decoded

2017-11-23 01:35 METAR KUNV 230635Z AUTO 31007KT 10SM OVC033 00/M08 A3013 RMK AO2 T10051078 =
2017-11-23 01:15 METAR KUNV 230615Z AUTO 31007KT 10SM OVC033 00/M07 A3013 RMK AO2 T10051074 =
2017-11-23 00:55 METAR KUNV 230555Z AUTO 32004KT 10SM OVC033 00/M07 A3013 RMK AO2 T10051073 10002
                 21010 =
2017-11-23 00:35 METAR KUNV 230535Z AUTO 31005KT 10SM OVC035 00/M07 A3015 RMK AO2 T10051075 =
2017-11-23 00:15 METAR KUNV 230515Z AUTO 29004KT 10SM OVC035 00/M07 A3015 RMK AO2 T10051075 =
2017-11-22 23:55 METAR KUNV 230455Z AUTO 30004KT 10SM OVC037 00/M08 A3016 RMK AO2 T10051077 =
2017-11-22 23:35 METAR KUNV 230435Z AUTO 31006KT 10SM OVC037 00/M08 A3015 RMK AO2 T10051080 =
2017-11-22 23:15 METAR KUNV 230415Z AUTO 00000KT 10SM OVC037 M01/M08 A3015 RMK AO2 T10071080 =
2017-11-22 22:55 METAR KUNV 230355Z AUTO 32005KT 10SM BKN037 M01/M08 A3015 RMK AO2 T10091082
                 400821010 =
2017-11-22 22:35 METAR KUNV 230335Z AUTO 32003KT 10SM SCT037 M01/M08 A3015 RMK AO2 T10101081 =
2017-11-22 22:15 METAR KUNV 230315Z AUTO 32005KT 10SM BKN035 M01/M08 A3015 RMK AO2 T10071077 =
2017-11-22 21:53 METAR KUNV 230253Z 27007KT 10SM OVC035 00/M07 A3015 =
2017-11-22 20:53 METAR KUNV 230153Z 30007KT 10SM OVC033 00/M07 A3016 =
2017-11-22 19:53 METAR KUNV 230053Z 27015KT 10SM OVC031 00/M07 A3017 =
2017-11-22 18:53 METAR KUNV 222353Z 24016KT 10SM OVC031 00/M06 A3016 =
2017-11-22 17:53 METAR KUNV 222253Z 27013KT 10SM OVC031 01/M05 A3015 =
2017-11-22 16:53 METAR KUNV 222153Z 27008KT 10SM OVC035 01/M06 A3013 =
2017-11-22 15:53 METAR KUNV 222053Z 28012KT 10SM BKN035 02/M05 A3010 =
2017-11-22 14:53 METAR KUNV 221953Z COR 27009G20KT 10SM BKN037 02/M05 A3008 =
2017-11-22 13:53 METAR KUNV 221853Z 32014G25KT 10SM OVC035 03/M05 A3009 =
2017-11-22 12:53 METAR KUNV 221753Z 33012G20KT 10SM BKN035 OVC041 04/M03 A3007 =
2017-11-22 12:41 METAR KUNV 221741Z 32008G18KT 10SM SCT031 BKN038 OVC046 04/M03 A3005 =
2017-11-22 11:53 METAR KUNV 221653Z 31008G15KT 10SM BKN029 BKN043 OVC050 04/M02 A3005 =
2017-11-22 10:53 METAR KUNV 221553Z 32010KT 8SM VCSH BKN027 OVC045 04/M01 A3006 =
2017-11-22 09:53 METAR KUNV 221453Z 32010KT 10SM BKN024 OVC055 04/00 A3005 =
2017-11-22 08:53 METAR KUNV 221353Z 29008KT 10SM OVC024 04/M01 A3003 =
2017-11-22 07:53 METAR KUNV 221253Z 31009G20KT 10SM SCT020 SCT046 OVC050 04/00 A3001 =
2017-11-22 06:53 METAR KUNV 221153Z 30010G20KT 10SM SCT028 SCT040 OVC110 06/01 A2997 =
2017-11-22 05:53 METAR KUNV 221053Z 28012KT 10SM BKN055 BKN070 OVC110 08/00 A2992 =
2017-11-22 05:35 METAR KUNV 221035Z AUTO 27007KT 10SM SCT065 OVC110 08/00 A2991 RMK AO2 T00801002
                 =
2017-11-22 05:15 METAR KUNV 221015Z AUTO 26008KT 10SM SCT065 SCT095 OVC120 08/00 A2991 RMK AO2
                 T00801001 =
2017-11-22 04:55 METAR KUNV 220955Z AUTO 26006KT 10SM BKN080 OVC100 07/00 A2991 RMK AO2 T00661003
                 =
2017-11-22 04:30 METAR KUNV 220930Z AUTO 00000KT 10SM BKN075 OVC085 06/M01 A2990 RMK AO2
                 T00601012 =
2017-11-22 04:15 METAR KUNV 220915Z AUTO 20003KT 10SM BKN065 OVC085 07/M02 A2990 RMK AO2
                 T00651017 =
2017-11-22 03:55 METAR KUNV 220855Z AUTO 00000KT 10SM OVC065 06/M01 A2990 RMK AO2 T00621015 =
2017-11-22 03:35 METAR KUNV 220835Z AUTO 00000KT 10SM OVC065 07/M02 A2990 RMK AO2 T00651020 =
2017-11-22 03:15 METAR KUNV 220815Z AUTO 00000KT 10SM OVC055 07/M02 A2990 RMK AO2 T00671021 =
2017-11-22 02:55 METAR KUNV 220755Z AUTO 18003KT 10SM OVC055 07/M02 A2991 RMK AO2 T00661016 =
2017-11-22 02:35 METAR KUNV 220735Z AUTO 21004KT 10SM OVC055 07/M01 A2991 RMK AO2 T00671015 =

Support USWX by starting your Amazon purchase here.